sensor_id;sensor_type;location;lat;lon;timestamp;P1;durP1;ratioP1;P2;durP2;ratioP2
4575;SDS011;2300;51.874;8.430;2022-11-20T00:00:16;69.10;;;62.03;;
4575;SDS011;2300;51.874;8.430;2022-11-20T00:02:43;71.83;;;64.70;;
4575;SDS011;2300;51.874;8.430;2022-11-20T00:05:09;69.47;;;62.73;;
4575;SDS011;2300;51.874;8.430;2022-11-20T00:07:36;71.90;;;64.73;;
4575;SDS011;2300;51.874;8.430;2022-11-20T00:10:03;67.43;;;60.83;;
4575;SDS011;2300;51.874;8.430;2022-11-20T00:12:30;71.67;;;64.53;;
4575;SDS011;2300;51.874;8.430;2022-11-20T00:14:57;68.83;;;62.03;;
4575;SDS011;2300;51.874;8.430;2022-11-20T00:17:25;70.77;;;64.17;;
4575;SDS011;2300;51.874;8.430;2022-11-20T00:19:51;70.63;;;63.93;;
4575;SDS011;2300;51.874;8.430;2022-11-20T00:22:18;68.33;;;61.83;;
4575;SDS011;2300;51.874;8.430;2022-11-20T00:24:44;70.37;;;63.80;;
4575;SDS011;2300;51.874;8.430;2022-11-20T00:27:11;66.50;;;60.07;;
4575;SDS011;2300;51.874;8.430;2022-11-20T00:29:38;71.60;;;65.20;;
4575;SDS011;2300;51.874;8.430;2022-11-20T00:32:04;76.67;;;69.77;;
4575;SDS011;2300;51.874;8.430;2022-11-20T00:34:32;71.40;;;64.80;;
4575;SDS011;2300;51.874;8.430;2022-11-20T00:36:59;70.97;;;64.60;;
4575;SDS011;2300;51.874;8.430;2022-11-20T00:39:25;70.80;;;64.43;;
4575;SDS011;2300;51.874;8.430;2022-11-20T00:41:52;72.60;;;66.00;;
4575;SDS011;2300;51.874;8.430;2022-11-20T00:44:19;71.00;;;64.67;;
4575;SDS011;2300;51.874;8.430;2022-11-20T00:46:45;73.60;;;67.37;;
4575;SDS011;2300;51.874;8.430;2022-11-20T00:49:12;70.70;;;64.10;;
4575;SDS011;2300;51.874;8.430;2022-11-20T00:51:39;72.53;;;65.80;;
4575;SDS011;2300;51.874;8.430;2022-11-20T00:54:06;70.07;;;64.03;;
4575;SDS011;2300;51.874;8.430;2022-11-20T00:56:33;69.83;;;63.60;;
4575;SDS011;2300;51.874;8.430;2022-11-20T00:58:59;73.20;;;66.57;;
4575;SDS011;2300;51.874;8.430;2022-11-20T01:01:27;71.80;;;65.30;;
4575;SDS011;2300;51.874;8.430;2022-11-20T01:03:56;69.20;;;63.00;;
4575;SDS011;2300;51.874;8.430;2022-11-20T01:06:24;68.33;;;62.03;;
4575;SDS011;2300;51.874;8.430;2022-11-20T01:08:54;68.13;;;61.97;;
4575;SDS011;2300;51.874;8.430;2022-11-20T01:11:22;70.00;;;63.90;;
4575;SDS011;2300;51.874;8.430;2022-11-20T01:13:51;66.83;;;60.73;;
4575;SDS011;2300;51.874;8.430;2022-11-20T01:16:20;65.83;;;59.57;;
4575;SDS011;2300;51.874;8.430;2022-11-20T01:18:48;66.23;;;59.97;;
4575;SDS011;2300;51.874;8.430;2022-11-20T01:21:16;66.63;;;60.30;;
4575;SDS011;2300;51.874;8.430;2022-11-20T01:23:45;66.43;;;60.23;;
4575;SDS011;2300;51.874;8.430;2022-11-20T01:26:14;67.07;;;61.03;;
4575;SDS011;2300;51.874;8.430;2022-11-20T01:28:42;63.70;;;57.93;;
4575;SDS011;2300;51.874;8.430;2022-11-20T01:31:13;62.23;;;56.43;;
4575;SDS011;2300;51.874;8.430;2022-11-20T01:33:40;66.20;;;60.20;;
4575;SDS011;2300;51.874;8.430;2022-11-20T01:36:08;66.10;;;60.17;;
4575;SDS011;2300;51.874;8.430;2022-11-20T01:38:36;63.77;;;57.97;;
4575;SDS011;2300;51.874;8.430;2022-11-20T01:41:03;64.63;;;58.37;;
4575;SDS011;2300;51.874;8.430;2022-11-20T01:43:31;65.77;;;59.80;;
4575;SDS011;2300;51.874;8.430;2022-11-20T01:46:01;66.63;;;60.33;;
4575;SDS011;2300;51.874;8.430;2022-11-20T01:48:33;67.40;;;60.97;;
4575;SDS011;2300;51.874;8.430;2022-11-20T01:51:04;70.27;;;63.83;;
4575;SDS011;2300;51.874;8.430;2022-11-20T01:53:38;70.57;;;63.63;;
4575;SDS011;2300;51.874;8.430;2022-11-20T01:56:05;70.03;;;63.23;;
4575;SDS011;2300;51.874;8.430;2022-11-20T01:58:38;69.07;;;62.40;;
4575;SDS011;2300;51.874;8.430;2022-11-20T02:01:08;66.57;;;60.10;;
4575;SDS011;2300;51.874;8.430;2022-11-20T02:03:34;65.70;;;59.20;;
4575;SDS011;2300;51.874;8.430;2022-11-20T02:06:04;67.47;;;61.20;;
4575;SDS011;2300;51.874;8.430;2022-11-20T02:08:34;70.53;;;63.57;;
4575;SDS011;2300;51.874;8.430;2022-11-20T02:11:02;72.47;;;65.57;;
4575;SDS011;2300;51.874;8.430;2022-11-20T02:13:29;70.13;;;63.70;;
4575;SDS011;2300;51.874;8.430;2022-11-20T02:16:19;74.10;;;67.37;;
4575;SDS011;2300;51.874;8.430;2022-11-20T02:18:48;69.90;;;63.10;;
4575;SDS011;2300;51.874;8.430;2022-11-20T02:21:21;69.17;;;62.40;;
4575;SDS011;2300;51.874;8.430;2022-11-20T02:23:59;68.47;;;62.13;;
4575;SDS011;2300;51.874;8.430;2022-11-20T02:26:27;70.40;;;63.73;;
4575;SDS011;2300;51.874;8.430;2022-11-20T02:28:55;72.87;;;66.17;;
4575;SDS011;2300;51.874;8.430;2022-11-20T02:31:22;71.33;;;64.23;;
4575;SDS011;2300;51.874;8.430;2022-11-20T02:33:53;71.37;;;64.57;;
4575;SDS011;2300;51.874;8.430;2022-11-20T02:36:21;68.53;;;61.80;;
4575;SDS011;2300;51.874;8.430;2022-11-20T02:38:47;74.33;;;67.63;;
4575;SDS011;2300;51.874;8.430;2022-11-20T02:41:16;70.47;;;64.00;;
4575;SDS011;2300;51.874;8.430;2022-11-20T02:43:43;70.07;;;63.47;;
4575;SDS011;2300;51.874;8.430;2022-11-20T02:46:09;71.00;;;64.40;;
4575;SDS011;2300;51.874;8.430;2022-11-20T02:48:36;73.03;;;66.13;;
4575;SDS011;2300;51.874;8.430;2022-11-20T02:51:03;71.77;;;65.13;;
4575;SDS011;2300;51.874;8.430;2022-11-20T02:53:30;68.13;;;61.67;;
4575;SDS011;2300;51.874;8.430;2022-11-20T02:55:56;70.90;;;64.13;;
4575;SDS011;2300;51.874;8.430;2022-11-20T02:58:24;73.83;;;66.90;;
4575;SDS011;2300;51.874;8.430;2022-11-20T03:00:51;69.67;;;62.90;;
4575;SDS011;2300;51.874;8.430;2022-11-20T03:03:18;74.33;;;67.20;;
4575;SDS011;2300;51.874;8.430;2022-11-20T03:05:44;70.17;;;63.53;;
4575;SDS011;2300;51.874;8.430;2022-11-20T03:08:11;71.87;;;64.67;;
4575;SDS011;2300;51.874;8.430;2022-11-20T03:10:37;72.43;;;65.50;;
4575;SDS011;2300;51.874;8.430;2022-11-20T03:13:04;69.10;;;62.57;;
4575;SDS011;2300;51.874;8.430;2022-11-20T03:15:32;71.40;;;64.93;;
4575;SDS011;2300;51.874;8.430;2022-11-20T03:17:58;67.10;;;60.50;;
4575;SDS011;2300;51.874;8.430;2022-11-20T03:20:25;70.23;;;63.33;;
4575;SDS011;2300;51.874;8.430;2022-11-20T03:22:53;71.63;;;64.77;;
4575;SDS011;2300;51.874;8.430;2022-11-20T03:25:19;69.37;;;62.93;;
4575;SDS011;2300;51.874;8.430;2022-11-20T03:27:46;66.13;;;60.10;;
4575;SDS011;2300;51.874;8.430;2022-11-20T03:30:13;71.70;;;64.77;;
4575;SDS011;2300;51.874;8.430;2022-11-20T03:32:41;71.40;;;64.97;;
4575;SDS011;2300;51.874;8.430;2022-11-20T03:35:08;68.23;;;61.83;;
4575;SDS011;2300;51.874;8.430;2022-11-20T03:37:34;68.20;;;61.60;;
4575;SDS011;2300;51.874;8.430;2022-11-20T03:40:01;70.97;;;64.63;;
4575;SDS011;2300;51.874;8.430;2022-11-20T03:42:27;71.07;;;64.50;;
4575;SDS011;2300;51.874;8.430;2022-11-20T03:45:12;67.23;;;61.00;;
4575;SDS011;2300;51.874;8.430;2022-11-20T03:47:41;64.93;;;58.80;;
4575;SDS011;2300;51.874;8.430;2022-11-20T03:50:08;67.33;;;60.77;;
4575;SDS011;2300;51.874;8.430;2022-11-20T03:52:37;67.53;;;60.87;;
4575;SDS011;2300;51.874;8.430;2022-11-20T03:55:04;65.37;;;59.27;;
4575;SDS011;2300;51.874;8.430;2022-11-20T03:57:30;65.07;;;59.27;;
4575;SDS011;2300;51.874;8.430;2022-11-20T03:59:57;67.43;;;61.13;;
4575;SDS011;2300;51.874;8.430;2022-11-20T04:02:23;63.90;;;57.83;;
4575;SDS011;2300;51.874;8.430;2022-11-20T04:04:51;64.60;;;58.70;;
4575;SDS011;2300;51.874;8.430;2022-11-20T04:07:18;65.10;;;59.13;;
4575;SDS011;2300;51.874;8.430;2022-11-20T04:09:44;68.47;;;61.97;;
4575;SDS011;2300;51.874;8.430;2022-11-20T04:12:11;69.70;;;63.30;;
4575;SDS011;2300;51.874;8.430;2022-11-20T04:14:37;65.67;;;59.60;;
4575;SDS011;2300;51.874;8.430;2022-11-20T04:17:04;67.73;;;61.30;;
4575;SDS011;2300;51.874;8.430;2022-11-20T04:19:30;60.53;;;55.07;;
4575;SDS011;2300;51.874;8.430;2022-11-20T04:21:58;65.27;;;59.53;;
4575;SDS011;2300;51.874;8.430;2022-11-20T04:24:25;67.13;;;61.23;;
4575;SDS011;2300;51.874;8.430;2022-11-20T04:26:52;64.20;;;58.20;;
4575;SDS011;2300;51.874;8.430;2022-11-20T04:29:19;61.93;;;56.23;;
4575;SDS011;2300;51.874;8.430;2022-11-20T04:31:45;62.70;;;56.87;;
4575;SDS011;2300;51.874;8.430;2022-11-20T04:34:12;65.50;;;59.37;;
4575;SDS011;2300;51.874;8.430;2022-11-20T04:36:38;67.83;;;61.63;;
4575;SDS011;2300;51.874;8.430;2022-11-20T04:39:07;63.30;;;57.60;;
4575;SDS011;2300;51.874;8.430;2022-11-20T04:41:39;64.93;;;58.97;;
4575;SDS011;2300;51.874;8.430;2022-11-20T04:44:05;58.73;;;53.33;;
4575;SDS011;2300;51.874;8.430;2022-11-20T04:46:33;64.43;;;58.40;;
4575;SDS011;2300;51.874;8.430;2022-11-20T04:49:01;63.50;;;57.70;;
4575;SDS011;2300;51.874;8.430;2022-11-20T04:51:28;64.10;;;58.40;;
4575;SDS011;2300;51.874;8.430;2022-11-20T04:53:55;62.67;;;56.67;;
4575;SDS011;2300;51.874;8.430;2022-11-20T04:56:22;60.30;;;54.87;;
4575;SDS011;2300;51.874;8.430;2022-11-20T04:58:49;56.07;;;50.80;;
4575;SDS011;2300;51.874;8.430;2022-11-20T05:01:17;58.03;;;52.83;;
4575;SDS011;2300;51.874;8.430;2022-11-20T05:03:45;62.07;;;56.63;;
4575;SDS011;2300;51.874;8.430;2022-11-20T05:06:12;61.13;;;55.77;;
4575;SDS011;2300;51.874;8.430;2022-11-20T05:08:39;65.33;;;59.93;;
4575;SDS011;2300;51.874;8.430;2022-11-20T05:11:07;64.13;;;58.50;;
4575;SDS011;2300;51.874;8.430;2022-11-20T05:13:36;62.53;;;57.43;;
4575;SDS011;2300;51.874;8.430;2022-11-20T05:16:03;62.00;;;56.73;;
4575;SDS011;2300;51.874;8.430;2022-11-20T05:18:31;59.90;;;54.60;;
4575;SDS011;2300;51.874;8.430;2022-11-20T05:20:58;60.53;;;55.20;;
4575;SDS011;2300;51.874;8.430;2022-11-20T05:23:25;61.20;;;55.93;;
4575;SDS011;2300;51.874;8.430;2022-11-20T05:25:52;63.43;;;57.93;;
4575;SDS011;2300;51.874;8.430;2022-11-20T05:28:19;62.70;;;57.50;;
4575;SDS011;2300;51.874;8.430;2022-11-20T05:30:47;60.53;;;55.20;;
4575;SDS011;2300;51.874;8.430;2022-11-20T05:33:13;58.77;;;53.73;;
4575;SDS011;2300;51.874;8.430;2022-11-20T05:35:40;58.67;;;53.77;;
4575;SDS011;2300;51.874;8.430;2022-11-20T05:38:07;60.77;;;55.67;;
4575;SDS011;2300;51.874;8.430;2022-11-20T05:40:34;62.53;;;57.37;;
4575;SDS011;2300;51.874;8.430;2022-11-20T05:43:00;59.30;;;53.83;;
4575;SDS011;2300;51.874;8.430;2022-11-20T05:45:27;58.77;;;53.43;;
4575;SDS011;2300;51.874;8.430;2022-11-20T05:47:57;58.20;;;52.67;;
4575;SDS011;2300;51.874;8.430;2022-11-20T05:50:23;56.97;;;51.80;;
4575;SDS011;2300;51.874;8.430;2022-11-20T05:52:50;58.30;;;53.17;;
4575;SDS011;2300;51.874;8.430;2022-11-20T05:55:16;59.83;;;54.67;;
4575;SDS011;2300;51.874;8.430;2022-11-20T05:57:43;59.13;;;53.60;;
4575;SDS011;2300;51.874;8.430;2022-11-20T06:00:10;58.53;;;53.17;;
4575;SDS011;2300;51.874;8.430;2022-11-20T06:02:37;58.43;;;53.43;;
4575;SDS011;2300;51.874;8.430;2022-11-20T06:05:05;59.97;;;54.57;;
4575;SDS011;2300;51.874;8.430;2022-11-20T06:07:32;56.87;;;51.83;;
4575;SDS011;2300;51.874;8.430;2022-11-20T06:09:59;57.50;;;52.20;;
4575;SDS011;2300;51.874;8.430;2022-11-20T06:12:26;57.83;;;52.80;;
4575;SDS011;2300;51.874;8.430;2022-11-20T06:14:52;55.10;;;50.10;;
4575;SDS011;2300;51.874;8.430;2022-11-20T06:17:19;58.83;;;53.93;;
4575;SDS011;2300;51.874;8.430;2022-11-20T06:19:45;54.77;;;49.83;;
4575;SDS011;2300;51.874;8.430;2022-11-20T06:22:13;56.23;;;51.27;;
4575;SDS011;2300;51.874;8.430;2022-11-20T06:24:40;59.43;;;54.57;;
4575;SDS011;2300;51.874;8.430;2022-11-20T06:27:06;57.27;;;52.33;;
4575;SDS011;2300;51.874;8.430;2022-11-20T06:29:33;56.80;;;52.03;;
4575;SDS011;2300;51.874;8.430;2022-11-20T06:31:59;56.77;;;52.17;;
4575;SDS011;2300;51.874;8.430;2022-11-20T06:34:26;57.73;;;53.33;;
4575;SDS011;2300;51.874;8.430;2022-11-20T06:36:53;55.77;;;51.53;;
4575;SDS011;2300;51.874;8.430;2022-11-20T06:39:21;57.27;;;52.87;;
4575;SDS011;2300;51.874;8.430;2022-11-20T06:41:47;57.47;;;53.00;;
4575;SDS011;2300;51.874;8.430;2022-11-20T06:44:14;56.03;;;51.90;;
4575;SDS011;2300;51.874;8.430;2022-11-20T06:46:40;59.10;;;54.70;;
4575;SDS011;2300;51.874;8.430;2022-11-20T06:49:07;57.60;;;53.40;;
4575;SDS011;2300;51.874;8.430;2022-11-20T06:51:33;57.83;;;53.30;;
4575;SDS011;2300;51.874;8.430;2022-11-20T06:54:00;57.23;;;53.17;;
4575;SDS011;2300;51.874;8.430;2022-11-20T06:56:28;60.97;;;56.60;;
4575;SDS011;2300;51.874;8.430;2022-11-20T06:58:54;59.87;;;55.63;;
4575;SDS011;2300;51.874;8.430;2022-11-20T07:01:20;61.47;;;57.00;;
4575;SDS011;2300;51.874;8.430;2022-11-20T07:03:48;57.73;;;53.57;;
4575;SDS011;2300;51.874;8.430;2022-11-20T07:06:14;56.60;;;52.70;;
4575;SDS011;2300;51.874;8.430;2022-11-20T07:08:41;60.07;;;55.87;;
4575;SDS011;2300;51.874;8.430;2022-11-20T07:11:07;59.30;;;55.23;;
4575;SDS011;2300;51.874;8.430;2022-11-20T07:13:39;57.93;;;53.63;;
4575;SDS011;2300;51.874;8.430;2022-11-20T07:16:06;62.57;;;57.73;;
4575;SDS011;2300;51.874;8.430;2022-11-20T07:18:34;65.50;;;60.00;;
4575;SDS011;2300;51.874;8.430;2022-11-20T07:21:00;65.63;;;60.23;;
4575;SDS011;2300;51.874;8.430;2022-11-20T07:23:27;61.30;;;56.83;;
4575;SDS011;2300;51.874;8.430;2022-11-20T07:25:54;61.87;;;57.20;;
4575;SDS011;2300;51.874;8.430;2022-11-20T07:28:20;60.97;;;56.60;;
4575;SDS011;2300;51.874;8.430;2022-11-20T07:30:50;59.00;;;54.97;;
4575;SDS011;2300;51.874;8.430;2022-11-20T07:33:17;58.80;;;54.80;;
4575;SDS011;2300;51.874;8.430;2022-11-20T07:35:44;57.77;;;53.77;;
4575;SDS011;2300;51.874;8.430;2022-11-20T07:38:11;56.03;;;52.23;;
4575;SDS011;2300;51.874;8.430;2022-11-20T07:40:37;55.57;;;51.87;;
4575;SDS011;2300;51.874;8.430;2022-11-20T07:43:04;55.30;;;51.40;;
4575;SDS011;2300;51.874;8.430;2022-11-20T07:45:30;55.27;;;51.37;;
4575;SDS011;2300;51.874;8.430;2022-11-20T07:47:58;53.40;;;49.80;;
4575;SDS011;2300;51.874;8.430;2022-11-20T07:50:25;53.93;;;50.27;;
4575;SDS011;2300;51.874;8.430;2022-11-20T07:52:51;50.70;;;47.20;;
4575;SDS011;2300;51.874;8.430;2022-11-20T07:55:18;53.27;;;49.53;;
4575;SDS011;2300;51.874;8.430;2022-11-20T07:57:44;54.07;;;50.37;;
4575;SDS011;2300;51.874;8.430;2022-11-20T08:00:11;53.83;;;49.93;;
4575;SDS011;2300;51.874;8.430;2022-11-20T08:02:39;52.23;;;48.67;;
4575;SDS011;2300;51.874;8.430;2022-11-20T08:05:07;50.97;;;47.37;;
4575;SDS011;2300;51.874;8.430;2022-11-20T08:07:35;51.40;;;48.00;;
4575;SDS011;2300;51.874;8.430;2022-11-20T08:10:03;53.50;;;49.90;;
4575;SDS011;2300;51.874;8.430;2022-11-20T08:12:30;54.03;;;50.43;;
4575;SDS011;2300;51.874;8.430;2022-11-20T08:15:14;53.37;;;49.23;;
4575;SDS011;2300;51.874;8.430;2022-11-20T08:17:40;51.93;;;48.43;;
4575;SDS011;2300;51.874;8.430;2022-11-20T08:20:09;52.30;;;48.23;;
4575;SDS011;2300;51.874;8.430;2022-11-20T08:22:36;54.23;;;50.43;;
4575;SDS011;2300;51.874;8.430;2022-11-20T08:25:03;53.70;;;50.00;;
4575;SDS011;2300;51.874;8.430;2022-11-20T08:27:33;55.27;;;51.47;;
4575;SDS011;2300;51.874;8.430;2022-11-20T08:30:00;56.27;;;52.27;;
4575;SDS011;2300;51.874;8.430;2022-11-20T08:32:26;54.93;;;51.23;;
4575;SDS011;2300;51.874;8.430;2022-11-20T08:34:53;55.80;;;52.13;;
4575;SDS011;2300;51.874;8.430;2022-11-20T08:37:21;54.47;;;50.77;;
4575;SDS011;2300;51.874;8.430;2022-11-20T08:39:47;54.43;;;50.73;;
4575;SDS011;2300;51.874;8.430;2022-11-20T08:42:14;55.07;;;51.47;;
4575;SDS011;2300;51.874;8.430;2022-11-20T08:44:40;55.93;;;52.27;;
4575;SDS011;2300;51.874;8.430;2022-11-20T08:47:08;55.73;;;51.73;;
4575;SDS011;2300;51.874;8.430;2022-11-20T08:49:34;56.27;;;52.63;;
4575;SDS011;2300;51.874;8.430;2022-11-20T08:52:01;58.30;;;54.37;;
4575;SDS011;2300;51.874;8.430;2022-11-20T08:54:29;58.83;;;54.93;;
4575;SDS011;2300;51.874;8.430;2022-11-20T08:56:55;60.40;;;56.50;;
4575;SDS011;2300;51.874;8.430;2022-11-20T08:59:22;58.57;;;54.63;;
4575;SDS011;2300;51.874;8.430;2022-11-20T09:01:48;61.50;;;57.13;;
4575;SDS011;2300;51.874;8.430;2022-11-20T09:04:15;63.57;;;59.20;;
4575;SDS011;2300;51.874;8.430;2022-11-20T09:06:41;67.87;;;63.20;;
4575;SDS011;2300;51.874;8.430;2022-11-20T09:09:08;62.37;;;58.07;;
4575;SDS011;2300;51.874;8.430;2022-11-20T09:11:36;60.07;;;55.87;;
4575;SDS011;2300;51.874;8.430;2022-11-20T09:14:02;55.80;;;51.80;;
4575;SDS011;2300;51.874;8.430;2022-11-20T09:16:29;57.97;;;53.57;;
4575;SDS011;2300;51.874;8.430;2022-11-20T09:18:56;75.17;;;67.07;;
4575;SDS011;2300;51.874;8.430;2022-11-20T09:21:22;60.50;;;55.87;;
4575;SDS011;2300;51.874;8.430;2022-11-20T09:23:49;60.87;;;56.50;;
4575;SDS011;2300;51.874;8.430;2022-11-20T09:26:16;58.03;;;53.63;;
4575;SDS011;2300;51.874;8.430;2022-11-20T09:28:45;57.10;;;52.77;;
4575;SDS011;2300;51.874;8.430;2022-11-20T09:31:15;55.97;;;51.97;;
4575;SDS011;2300;51.874;8.430;2022-11-20T09:33:47;56.20;;;52.30;;
4575;SDS011;2300;51.874;8.430;2022-11-20T09:36:14;55.93;;;51.97;;
4575;SDS011;2300;51.874;8.430;2022-11-20T09:38:41;57.37;;;53.47;;
4575;SDS011;2300;51.874;8.430;2022-11-20T09:41:10;56.07;;;52.20;;
4575;SDS011;2300;51.874;8.430;2022-11-20T09:43:58;55.27;;;51.17;;
4575;SDS011;2300;51.874;8.430;2022-11-20T09:46:33;55.63;;;51.60;;
4575;SDS011;2300;51.874;8.430;2022-11-20T09:49:15;55.13;;;51.30;;
4575;SDS011;2300;51.874;8.430;2022-11-20T09:51:51;56.53;;;52.43;;
4575;SDS011;2300;51.874;8.430;2022-11-20T09:54:25;59.40;;;55.33;;
4575;SDS011;2300;51.874;8.430;2022-11-20T09:56:55;59.73;;;55.53;;
4575;SDS011;2300;51.874;8.430;2022-11-20T09:59:34;70.10;;;65.63;;
4575;SDS011;2300;51.874;8.430;2022-11-20T10:02:11;62.73;;;58.73;;
4575;SDS011;2300;51.874;8.430;2022-11-20T10:04:43;78.70;;;73.60;;
4575;SDS011;2300;51.874;8.430;2022-11-20T10:07:15;80.23;;;75.13;;
4575;SDS011;2300;51.874;8.430;2022-11-20T10:09:49;72.57;;;67.87;;
4575;SDS011;2300;51.874;8.430;2022-11-20T10:12:19;69.57;;;65.17;;
4575;SDS011;2300;51.874;8.430;2022-11-20T10:15:01;72.87;;;68.40;;
4575;SDS011;2300;51.874;8.430;2022-11-20T10:17:48;74.07;;;69.27;;
4575;SDS011;2300;51.874;8.430;2022-11-20T10:20:27;76.63;;;71.83;;
4575;SDS011;2300;51.874;8.430;2022-11-20T10:23:03;73.83;;;69.17;;
4575;SDS011;2300;51.874;8.430;2022-11-20T10:25:46;73.90;;;69.23;;
4575;SDS011;2300;51.874;8.430;2022-11-20T10:28:23;78.67;;;73.30;;
4575;SDS011;2300;51.874;8.430;2022-11-20T10:31:02;65.03;;;60.73;;
4575;SDS011;2300;51.874;8.430;2022-11-20T10:33:31;65.30;;;61.00;;
4575;SDS011;2300;51.874;8.430;2022-11-20T10:36:05;65.67;;;61.47;;
4575;SDS011;2300;51.874;8.430;2022-11-20T10:38:40;64.90;;;60.70;;
4575;SDS011;2300;51.874;8.430;2022-11-20T10:41:12;62.07;;;58.03;;
4575;SDS011;2300;51.874;8.430;2022-11-20T10:43:53;60.20;;;55.93;;
4575;SDS011;2300;51.874;8.430;2022-11-20T10:46:30;59.20;;;55.23;;
4575;SDS011;2300;51.874;8.430;2022-11-20T10:49:04;59.27;;;55.37;;
4575;SDS011;2300;51.874;8.430;2022-11-20T10:51:41;60.67;;;56.80;;
4575;SDS011;2300;51.874;8.430;2022-11-20T10:54:22;60.83;;;56.73;;
4575;SDS011;2300;51.874;8.430;2022-11-20T10:56:59;60.90;;;56.63;;
4575;SDS011;2300;51.874;8.430;2022-11-20T10:59:38;59.33;;;55.47;;
4575;SDS011;2300;51.874;8.430;2022-11-20T11:02:20;57.17;;;53.27;;
4575;SDS011;2300;51.874;8.430;2022-11-20T11:04:50;60.20;;;56.10;;
4575;SDS011;2300;51.874;8.430;2022-11-20T11:07:20;56.10;;;52.30;;
4575;SDS011;2300;51.874;8.430;2022-11-20T11:09:50;57.43;;;53.53;;
4575;SDS011;2300;51.874;8.430;2022-11-20T11:12:19;58.50;;;54.30;;
4575;SDS011;2300;51.874;8.430;2022-11-20T11:14:48;56.93;;;53.03;;
4575;SDS011;2300;51.874;8.430;2022-11-20T11:17:25;55.73;;;51.80;;
4575;SDS011;2300;51.874;8.430;2022-11-20T11:19:58;56.00;;;52.00;;
4575;SDS011;2300;51.874;8.430;2022-11-20T11:22:25;58.00;;;53.97;;
4575;SDS011;2300;51.874;8.430;2022-11-20T11:24:55;58.13;;;54.03;;
4575;SDS011;2300;51.874;8.430;2022-11-20T11:27:21;59.13;;;55.13;;
4575;SDS011;2300;51.874;8.430;2022-11-20T11:29:48;58.03;;;53.87;;
4575;SDS011;2300;51.874;8.430;2022-11-20T11:32:15;58.63;;;54.73;;
4575;SDS011;2300;51.874;8.430;2022-11-20T11:34:57;59.60;;;55.33;;
4575;SDS011;2300;51.874;8.430;2022-11-20T11:37:25;60.40;;;56.37;;
4575;SDS011;2300;51.874;8.430;2022-11-20T11:39:59;59.33;;;55.23;;
4575;SDS011;2300;51.874;8.430;2022-11-20T11:42:25;61.70;;;57.30;;
4575;SDS011;2300;51.874;8.430;2022-11-20T11:44:54;61.30;;;56.80;;
4575;SDS011;2300;51.874;8.430;2022-11-20T11:47:32;61.53;;;57.33;;
4575;SDS011;2300;51.874;8.430;2022-11-20T11:50:07;63.13;;;58.73;;
4575;SDS011;2300;51.874;8.430;2022-11-20T11:52:42;61.07;;;56.77;;
4575;SDS011;2300;51.874;8.430;2022-11-20T11:55:12;60.90;;;56.70;;
4575;SDS011;2300;51.874;8.430;2022-11-20T11:57:44;62.63;;;58.07;;
4575;SDS011;2300;51.874;8.430;2022-11-20T12:00:17;62.53;;;58.03;;
4575;SDS011;2300;51.874;8.430;2022-11-20T12:02:49;62.80;;;58.43;;
4575;SDS011;2300;51.874;8.430;2022-11-20T12:05:26;60.97;;;56.73;;
4575;SDS011;2300;51.874;8.430;2022-11-20T12:07:56;61.37;;;56.97;;
4575;SDS011;2300;51.874;8.430;2022-11-20T12:10:35;62.87;;;58.40;;
4575;SDS011;2300;51.874;8.430;2022-11-20T12:13:13;65.63;;;60.83;;
4575;SDS011;2300;51.874;8.430;2022-11-20T12:15:47;66.80;;;62.10;;
4575;SDS011;2300;51.874;8.430;2022-11-20T12:18:15;65.43;;;60.50;;
4575;SDS011;2300;51.874;8.430;2022-11-20T12:20:45;64.10;;;59.40;;
4575;SDS011;2300;51.874;8.430;2022-11-20T12:23:21;64.10;;;59.37;;
4575;SDS011;2300;51.874;8.430;2022-11-20T12:25:56;66.33;;;61.20;;
4575;SDS011;2300;51.874;8.430;2022-11-20T12:28:35;66.80;;;61.73;;
4575;SDS011;2300;51.874;8.430;2022-11-20T12:34:18;67.77;;;62.77;;
4575;SDS011;2300;51.874;8.430;2022-11-20T12:37:01;71.33;;;66.20;;
4575;SDS011;2300;51.874;8.430;2022-11-20T12:39:35;65.27;;;60.40;;
4575;SDS011;2300;51.874;8.430;2022-11-20T12:42:13;65.87;;;60.97;;
4575;SDS011;2300;51.874;8.430;2022-11-20T12:45:17;63.13;;;58.33;;
4575;SDS011;2300;51.874;8.430;2022-11-20T12:48:11;64.73;;;59.90;;
4575;SDS011;2300;51.874;8.430;2022-11-20T12:50:51;66.37;;;61.37;;
4575;SDS011;2300;51.874;8.430;2022-11-20T12:53:33;66.47;;;61.37;;
4575;SDS011;2300;51.874;8.430;2022-11-20T12:56:11;67.33;;;62.33;;
4575;SDS011;2300;51.874;8.430;2022-11-20T12:58:49;69.97;;;64.77;;
4575;SDS011;2300;51.874;8.430;2022-11-20T13:01:26;72.57;;;67.40;;
4575;SDS011;2300;51.874;8.430;2022-11-20T13:04:08;69.00;;;64.00;;
4575;SDS011;2300;51.874;8.430;2022-11-20T13:06:44;66.53;;;61.53;;
4575;SDS011;2300;51.874;8.430;2022-11-20T13:09:13;62.23;;;57.53;;
4575;SDS011;2300;51.874;8.430;2022-11-20T13:11:44;63.10;;;57.97;;
4575;SDS011;2300;51.874;8.430;2022-11-20T13:14:20;61.70;;;56.90;;
4575;SDS011;2300;51.874;8.430;2022-11-20T13:16:58;63.03;;;58.13;;
4575;SDS011;2300;51.874;8.430;2022-11-20T13:19:31;62.73;;;57.80;;
4575;SDS011;2300;51.874;8.430;2022-11-20T13:21:59;69.17;;;63.97;;
4575;SDS011;2300;51.874;8.430;2022-11-20T13:24:28;67.73;;;62.80;;
4575;SDS011;2300;51.874;8.430;2022-11-20T13:26:59;68.53;;;63.63;;
4575;SDS011;2300;51.874;8.430;2022-11-20T13:29:27;64.93;;;60.03;;
4575;SDS011;2300;51.874;8.430;2022-11-20T13:32:01;63.03;;;58.13;;
4575;SDS011;2300;51.874;8.430;2022-11-20T13:34:30;61.23;;;56.47;;
4575;SDS011;2300;51.874;8.430;2022-11-20T13:36:57;61.83;;;56.93;;
4575;SDS011;2300;51.874;8.430;2022-11-20T13:39:30;61.67;;;56.97;;
4575;SDS011;2300;51.874;8.430;2022-11-20T13:41:59;62.90;;;58.10;;
4575;SDS011;2300;51.874;8.430;2022-11-20T13:44:29;62.93;;;58.13;;
4575;SDS011;2300;51.874;8.430;2022-11-20T13:47:02;63.57;;;58.67;;
4575;SDS011;2300;51.874;8.430;2022-11-20T13:49:30;63.03;;;58.13;;
4575;SDS011;2300;51.874;8.430;2022-11-20T13:52:03;63.07;;;58.10;;
4575;SDS011;2300;51.874;8.430;2022-11-20T13:54:54;64.00;;;58.97;;
4575;SDS011;2300;51.874;8.430;2022-11-20T14:00:26;63.13;;;58.03;;
4575;SDS011;2300;51.874;8.430;2022-11-20T14:02:59;62.70;;;58.00;;
4575;SDS011;2300;51.874;8.430;2022-11-20T14:05:38;65.70;;;60.47;;
4575;SDS011;2300;51.874;8.430;2022-11-20T14:08:11;64.17;;;59.13;;
4575;SDS011;2300;51.874;8.430;2022-11-20T14:10:45;63.53;;;58.63;;
4575;SDS011;2300;51.874;8.430;2022-11-20T14:13:15;64.47;;;59.50;;
4575;SDS011;2300;51.874;8.430;2022-11-20T14:15:44;64.00;;;58.90;;
4575;SDS011;2300;51.874;8.430;2022-11-20T14:18:13;63.73;;;58.63;;
4575;SDS011;2300;51.874;8.430;2022-11-20T14:20:42;63.30;;;58.30;;
4575;SDS011;2300;51.874;8.430;2022-11-20T14:23:09;64.30;;;59.07;;
4575;SDS011;2300;51.874;8.430;2022-11-20T14:25:36;64.30;;;59.07;;
4575;SDS011;2300;51.874;8.430;2022-11-20T14:28:05;67.57;;;62.10;;
4575;SDS011;2300;51.874;8.430;2022-11-20T14:30:36;64.57;;;59.53;;
4575;SDS011;2300;51.874;8.430;2022-11-20T14:33:05;66.00;;;60.80;;
4575;SDS011;2300;51.874;8.430;2022-11-20T14:35:34;64.70;;;59.43;;
4575;SDS011;2300;51.874;8.430;2022-11-20T14:38:03;64.77;;;59.57;;
4575;SDS011;2300;51.874;8.430;2022-11-20T14:40:30;65.63;;;60.47;;
4575;SDS011;2300;51.874;8.430;2022-11-20T14:43:00;67.60;;;62.30;;
4575;SDS011;2300;51.874;8.430;2022-11-20T14:45:28;65.30;;;60.10;;
4575;SDS011;2300;51.874;8.430;2022-11-20T14:47:55;68.73;;;63.27;;
4575;SDS011;2300;51.874;8.430;2022-11-20T14:50:24;66.93;;;61.63;;
4575;SDS011;2300;51.874;8.430;2022-11-20T14:52:53;65.67;;;60.63;;
4575;SDS011;2300;51.874;8.430;2022-11-20T14:55:30;65.23;;;60.07;;
4575;SDS011;2300;51.874;8.430;2022-11-20T14:57:59;65.40;;;60.30;;
4575;SDS011;2300;51.874;8.430;2022-11-20T15:00:34;67.67;;;62.23;;
4575;SDS011;2300;51.874;8.430;2022-11-20T15:03:02;65.87;;;60.83;;
4575;SDS011;2300;51.874;8.430;2022-11-20T15:05:43;66.80;;;61.47;;
4575;SDS011;2300;51.874;8.430;2022-11-20T15:08:11;67.53;;;62.10;;